createdAt,value
2023-05-12T00:01:33.297Z,10.80
2023-05-12T00:04:01.375Z,10.80
2023-05-12T00:06:29.334Z,10.70
2023-05-12T00:08:57.126Z,10.70
2023-05-12T00:11:25.028Z,10.70
2023-05-12T00:13:53.536Z,10.70
2023-05-12T00:16:23.333Z,10.70
2023-05-12T00:18:52.122Z,10.70
2023-05-12T00:21:19.918Z,10.70
2023-05-12T00:23:47.690Z,10.70
2023-05-12T00:26:15.624Z,10.60
2023-05-12T00:28:43.391Z,10.70
2023-05-12T00:31:11.185Z,10.60
2023-05-12T00:33:41.079Z,10.60
2023-05-12T00:36:09.560Z,10.70
2023-05-12T00:38:37.379Z,10.60
2023-05-12T00:41:05.303Z,10.70
2023-05-12T00:43:33.538Z,10.60
2023-05-12T00:46:02.005Z,10.60
2023-05-12T00:48:29.903Z,10.60
2023-05-12T00:50:59.220Z,10.70
2023-05-12T00:53:30.688Z,10.70
2023-05-12T00:56:06.032Z,10.70
2023-05-12T00:58:33.794Z,10.70
2023-05-12T01:01:01.597Z,10.70
2023-05-12T01:03:30.702Z,10.80
2023-05-12T01:06:07.030Z,10.80
2023-05-12T01:08:36.054Z,10.80
2023-05-12T01:11:04.240Z,10.80
2023-05-12T01:13:32.011Z,10.80
2023-05-12T01:16:03.085Z,10.80
2023-05-12T01:18:34.604Z,10.90
2023-05-12T01:21:05.223Z,10.90
2023-05-12T01:23:40.872Z,10.90
2023-05-12T01:26:10.856Z,11.00
2023-05-12T01:28:41.051Z,11.00
2023-05-12T01:31:10.136Z,11.00
2023-05-12T01:33:38.274Z,11.00
2023-05-12T01:36:06.826Z,11.10
2023-05-12T01:38:34.629Z,11.00
2023-05-12T01:41:02.388Z,11.00
2023-05-12T01:43:31.495Z,11.00
2023-05-12T01:45:59.344Z,10.90
2023-05-12T01:48:27.217Z,10.90
2023-05-12T01:50:54.960Z,10.90
2023-05-12T01:53:22.742Z,10.90
2023-05-12T01:55:50.503Z,10.90
2023-05-12T01:58:20.221Z,10.90
2023-05-12T02:00:49.327Z,10.80
2023-05-12T02:03:17.361Z,10.90
2023-05-12T02:05:45.149Z,10.90
2023-05-12T02:08:12.899Z,10.90
2023-05-12T02:10:40.766Z,10.90
2023-05-12T02:13:08.586Z,10.80
2023-05-12T02:15:36.332Z,10.80
2023-05-12T02:18:05.662Z,10.80
2023-05-12T02:20:33.493Z,10.80
2023-05-12T02:23:02.917Z,10.80
2023-05-12T02:25:30.660Z,10.80
2023-05-12T02:27:58.425Z,10.80
2023-05-12T02:30:26.172Z,10.80
2023-05-12T02:32:54.027Z,10.80
2023-05-12T02:35:23.274Z,10.80
2023-05-12T02:37:51.009Z,10.80
2023-05-12T02:40:19.004Z,10.80
2023-05-12T02:42:46.919Z,10.80
2023-05-12T02:45:14.770Z,10.70
2023-05-12T02:47:42.653Z,10.70
2023-05-12T02:50:10.934Z,10.70
2023-05-12T02:52:40.038Z,10.70
2023-05-12T02:55:08.326Z,10.70
2023-05-12T02:57:36.163Z,10.60
2023-05-12T03:00:05.940Z,10.70
2023-05-12T03:02:33.844Z,10.60
2023-05-12T03:05:01.729Z,10.60
2023-05-12T03:07:29.781Z,10.60
2023-05-12T03:09:59.235Z,10.60
2023-05-12T03:12:28.666Z,10.60
2023-05-12T03:14:56.603Z,10.60
2023-05-12T03:17:24.478Z,10.60
2023-05-12T03:19:52.271Z,10.60
2023-05-12T03:22:20.076Z,10.60
2023-05-12T03:24:47.905Z,10.60
2023-05-12T03:27:17.003Z,10.60
2023-05-12T03:29:44.751Z,10.60
2023-05-12T03:32:12.510Z,10.60
2023-05-12T03:34:40.250Z,10.70
2023-05-12T03:37:08.273Z,10.60
2023-05-12T03:39:36.101Z,10.60
2023-05-12T03:42:03.871Z,10.60
2023-05-12T03:44:32.963Z,10.60
2023-05-12T03:47:00.823Z,10.60
2023-05-12T03:49:28.722Z,10.60
2023-05-12T03:51:56.499Z,10.60
2023-05-12T03:54:24.260Z,10.60
2023-05-12T03:56:53.344Z,10.60
2023-05-12T03:59:21.724Z,10.60
2023-05-12T04:01:50.844Z,10.60
2023-05-12T04:04:19.052Z,10.60
2023-05-12T04:06:46.804Z,10.70
2023-05-12T04:09:14.522Z,10.70
2023-05-12T04:11:42.274Z,10.70
2023-05-12T04:14:10.082Z,10.70
2023-05-12T04:16:37.962Z,10.70
2023-05-12T04:19:07.503Z,10.70
2023-05-12T04:21:35.367Z,10.70
2023-05-12T04:24:03.123Z,10.70
2023-05-12T04:26:30.858Z,10.70
2023-05-12T04:28:58.768Z,10.80
2023-05-12T04:31:26.635Z,10.80
2023-05-12T04:33:55.859Z,10.80
2023-05-12T04:36:25.025Z,10.80
2023-05-12T04:38:53.868Z,10.80
2023-05-12T04:41:22.324Z,10.80
2023-05-12T04:46:20.846Z,10.80
2023-05-12T04:48:48.641Z,10.80
2023-05-12T04:51:16.381Z,10.90
2023-05-12T04:53:45.957Z,10.90
2023-05-12T04:56:13.724Z,10.90
2023-05-12T04:58:41.458Z,11.00
2023-05-12T05:01:09.279Z,11.00
2023-05-12T05:03:37.229Z,11.10
2023-05-12T05:06:05.362Z,11.10
2023-05-12T05:08:33.101Z,11.10
2023-05-12T05:11:02.170Z,11.20
2023-05-12T05:13:29.932Z,11.20
2023-05-12T05:15:57.724Z,11.20
2023-05-12T05:18:25.634Z,11.20
2023-05-12T05:20:58.395Z,11.20
2023-05-12T05:23:26.887Z,11.30
2023-05-12T05:25:54.643Z,11.30
2023-05-12T05:28:23.720Z,11.30
2023-05-12T05:30:51.474Z,11.30
2023-05-12T05:33:19.198Z,11.30
2023-05-12T05:35:48.155Z,11.40
2023-05-12T05:38:15.989Z,11.40
2023-05-12T05:40:52.852Z,11.40
2023-05-12T05:43:23.208Z,11.40
2023-05-12T05:45:51.514Z,11.40
2023-05-12T05:48:19.366Z,11.40
2023-05-12T05:50:47.134Z,11.50
2023-05-12T05:53:15.201Z,11.50
2023-05-12T05:55:43.281Z,11.50
2023-05-12T05:58:11.114Z,11.60
2023-05-12T06:00:40.284Z,11.60
2023-05-12T06:03:08.196Z,11.70
2023-05-12T06:05:36.197Z,11.70
2023-05-12T06:08:05.087Z,11.80
2023-05-12T06:10:40.988Z,11.80
2023-05-12T06:13:08.804Z,11.80
2023-05-12T06:15:36.849Z,11.80
2023-05-12T06:18:06.248Z,11.90
2023-05-12T06:20:34.001Z,11.80
2023-05-12T06:23:01.855Z,11.80
2023-05-12T06:25:29.628Z,11.90
2023-05-12T06:27:57.390Z,12.00
2023-05-12T06:30:25.154Z,12.00
2023-05-12T06:32:52.934Z,12.10
2023-05-12T06:35:22.328Z,12.10
2023-05-12T06:37:50.875Z,12.10
2023-05-12T06:40:18.834Z,12.10
2023-05-12T06:42:46.573Z,12.20
2023-05-12T06:45:14.417Z,12.20
2023-05-12T06:47:42.214Z,12.20
2023-05-12T06:50:10.674Z,12.20
2023-05-12T06:52:39.921Z,12.20
2023-05-12T06:55:08.266Z,12.30
2023-05-12T06:57:36.131Z,12.30
2023-05-12T07:00:04.841Z,12.40
2023-05-12T07:02:32.781Z,12.40
2023-05-12T07:05:00.584Z,12.40
2023-05-12T07:07:28.358Z,12.50
2023-05-12T07:09:58.050Z,12.60
2023-05-12T07:12:25.852Z,12.60
2023-05-12T07:14:53.643Z,12.60
2023-05-12T07:17:21.815Z,12.60
2023-05-12T07:19:49.784Z,12.60
2023-05-12T07:22:17.690Z,12.60
2023-05-12T07:24:45.908Z,12.70
2023-05-12T07:27:15.017Z,12.70
2023-05-12T07:29:42.780Z,12.70
2023-05-12T07:32:10.599Z,12.80
2023-05-12T07:34:38.645Z,12.80
2023-05-12T07:37:06.463Z,12.80
2023-05-12T07:39:34.363Z,12.70
2023-05-12T07:42:02.143Z,12.70
2023-05-12T07:44:33.271Z,12.70
2023-05-12T07:47:01.031Z,12.70
2023-05-12T07:49:28.823Z,12.70
2023-05-12T07:51:56.589Z,12.70
2023-05-12T07:54:24.338Z,12.60
2023-05-12T07:56:52.072Z,12.70
2023-05-12T07:59:19.832Z,12.70
2023-05-12T08:01:49.202Z,12.80
2023-05-12T08:04:17.024Z,12.90
2023-05-12T08:06:44.938Z,12.90
2023-05-12T08:09:12.716Z,13.00
2023-05-12T08:11:40.541Z,13.00
2023-05-12T08:14:08.298Z,13.00
2023-05-12T08:16:36.092Z,13.00
2023-05-12T08:19:05.231Z,13.10
2023-05-12T08:21:33.054Z,13.10
2023-05-12T08:24:00.823Z,13.20
2023-05-12T08:26:28.834Z,13.30
2023-05-12T08:28:56.604Z,13.30
2023-05-12T08:31:24.432Z,13.30
2023-05-12T08:34:06.397Z,13.20
2023-05-12T08:36:39.272Z,13.30
2023-05-12T08:39:08.064Z,13.30
2023-05-12T08:41:44.450Z,13.30
2023-05-12T08:44:13.103Z,13.30
2023-05-12T08:46:41.559Z,13.30
2023-05-12T08:49:15.580Z,13.40
2023-05-12T08:51:49.950Z,13.50
2023-05-12T08:54:27.650Z,13.50
2023-05-12T08:59:27.378Z,13.70
2023-05-12T09:01:56.155Z,13.60
2023-05-12T09:04:24.031Z,13.60
2023-05-12T09:06:55.959Z,13.60
2023-05-12T09:09:25.996Z,13.50
2023-05-12T09:11:57.518Z,13.50
2023-05-12T09:14:26.532Z,13.40
2023-05-12T09:17:00.907Z,13.40
2023-05-12T09:19:29.272Z,13.30
2023-05-12T09:21:59.562Z,13.40
2023-05-12T09:24:36.243Z,13.40
2023-05-12T09:27:04.772Z,13.50
2023-05-12T09:29:37.405Z,13.70
2023-05-12T09:32:10.128Z,13.90
2023-05-12T09:34:41.097Z,13.90
2023-05-12T09:37:11.523Z,13.90
2023-05-12T09:39:40.472Z,13.90
2023-05-12T09:42:12.750Z,14.00
2023-05-12T09:44:41.916Z,14.00
2023-05-12T09:47:10.697Z,14.20
2023-05-12T09:49:39.655Z,14.30
2023-05-12T09:52:07.510Z,14.50
2023-05-12T09:54:40.385Z,14.50
2023-05-12T09:57:10.038Z,14.50
2023-05-12T09:59:38.523Z,14.40
2023-05-12T10:02:09.090Z,14.50
2023-05-12T10:04:43.872Z,14.40
2023-05-12T10:07:15.130Z,14.60
2023-05-12T10:09:46.104Z,14.70
2023-05-12T10:12:14.669Z,14.80
2023-05-12T10:14:43.597Z,14.80
2023-05-12T10:17:12.791Z,14.70
2023-05-12T10:19:43.331Z,14.60
2023-05-12T10:22:12.060Z,14.60
2023-05-12T10:24:41.720Z,14.60
2023-05-12T10:27:11.786Z,14.60
2023-05-12T10:29:41.250Z,14.50
2023-05-12T10:32:09.320Z,14.30
2023-05-12T10:34:38.491Z,14.30
2023-05-12T10:37:08.942Z,14.40
2023-05-12T10:39:36.978Z,14.20
2023-05-12T10:42:08.259Z,14.10
2023-05-12T10:44:37.668Z,14.10
2023-05-12T10:47:14.650Z,14.00
2023-05-12T10:49:43.072Z,13.90
2023-05-12T10:52:12.980Z,13.90
2023-05-12T10:54:44.189Z,13.80
2023-05-12T10:57:18.355Z,13.70
2023-05-12T10:59:53.107Z,13.70
2023-05-12T11:02:27.698Z,13.70
2023-05-12T11:04:58.764Z,13.70
2023-05-12T11:07:30.304Z,13.80
2023-05-12T11:10:01.485Z,13.90
2023-05-12T11:12:35.102Z,14.00
2023-05-12T11:15:05.585Z,14.20
2023-05-12T11:17:33.476Z,14.20
2023-05-12T11:20:01.872Z,14.40
2023-05-12T11:22:30.080Z,14.50
2023-05-12T11:24:58.003Z,14.60
2023-05-12T11:27:25.946Z,14.60
2023-05-12T11:29:58.215Z,14.60
2023-05-12T11:32:27.918Z,14.80
2023-05-12T11:34:55.797Z,14.70
2023-05-12T11:37:23.920Z,14.70
2023-05-12T11:39:52.843Z,14.70
2023-05-12T11:42:22.792Z,14.70
2023-05-12T11:44:52.869Z,14.60
2023-05-12T11:47:21.150Z,14.60
2023-05-12T11:49:51.645Z,14.50
2023-05-12T11:52:20.615Z,14.50
2023-05-12T11:54:52.462Z,14.50
2023-05-12T11:57:27.948Z,14.40
2023-05-12T12:00:00.136Z,14.60
2023-05-12T12:02:28.866Z,14.50
2023-05-12T12:04:58.270Z,14.50
2023-05-12T12:07:33.164Z,14.60
2023-05-12T12:10:13.093Z,14.70
2023-05-12T12:12:40.981Z,14.60
2023-05-12T12:15:09.799Z,14.60
2023-05-12T12:17:38.003Z,14.60
2023-05-12T12:20:08.870Z,14.60
2023-05-12T12:22:36.693Z,14.60
2023-05-12T12:25:05.156Z,14.60
2023-05-12T12:27:32.958Z,14.60
2023-05-12T12:30:00.748Z,14.70
2023-05-12T12:32:29.016Z,14.70
2023-05-12T12:34:59.510Z,14.70
2023-05-12T12:37:28.575Z,14.80
2023-05-12T12:39:56.327Z,14.70
2023-05-12T12:42:24.267Z,14.70
2023-05-12T12:44:52.398Z,14.70
2023-05-12T12:47:20.250Z,14.70
2023-05-12T12:49:48.028Z,14.80
2023-05-12T12:52:15.820Z,14.80
2023-05-12T12:54:45.088Z,14.80
2023-05-12T12:57:12.821Z,14.90
2023-05-12T12:59:40.575Z,14.90
2023-05-12T13:02:08.987Z,15.00
2023-05-12T13:04:36.853Z,15.00
2023-05-12T13:07:05.792Z,15.00
2023-05-12T13:09:33.562Z,14.90
2023-05-12T13:12:02.731Z,14.80
2023-05-12T13:14:30.507Z,14.80
2023-05-12T13:16:58.316Z,14.90
2023-05-12T13:19:26.176Z,15.00
2023-05-12T13:21:53.930Z,15.10
2023-05-12T13:24:21.696Z,15.10
2023-05-12T13:26:49.450Z,15.10
2023-05-12T13:29:18.989Z,15.10
2023-05-12T13:31:46.733Z,15.10
2023-05-12T13:34:14.573Z,15.10
2023-05-12T13:36:42.512Z,15.20
2023-05-12T13:39:11.323Z,15.30
2023-05-12T13:41:39.069Z,15.30
2023-05-12T13:44:06.891Z,15.30
2023-05-12T13:46:36.472Z,15.20
2023-05-12T13:49:04.512Z,15.20
2023-05-12T13:51:32.845Z,15.20
2023-05-12T13:54:00.601Z,15.20
2023-05-12T13:56:28.415Z,15.30
2023-05-12T13:58:56.187Z,15.30
2023-05-12T14:01:24.058Z,15.30
2023-05-12T14:03:53.143Z,15.30
2023-05-12T14:06:20.906Z,15.40
2023-05-12T14:08:49.072Z,15.30
2023-05-12T14:11:16.858Z,15.20
2023-05-12T14:13:44.691Z,15.10
2023-05-12T14:16:13.833Z,14.90
2023-05-12T14:18:43.493Z,14.90
2023-05-12T14:21:13.079Z,14.80
2023-05-12T14:23:40.865Z,14.80
2023-05-12T14:26:08.624Z,14.80
2023-05-12T14:28:38.462Z,14.80
2023-05-12T14:31:06.376Z,14.90
2023-05-12T14:33:34.272Z,15.00
2023-05-12T14:36:07.206Z,15.00
2023-05-12T14:38:37.802Z,15.10
2023-05-12T14:41:08.009Z,15.10
2023-05-12T14:43:35.825Z,15.00
2023-05-12T14:46:04.287Z,15.00
2023-05-12T14:48:32.074Z,15.00
2023-05-12T14:51:00.208Z,15.00
2023-05-12T14:53:28.005Z,15.00
2023-05-12T14:55:57.172Z,14.90
2023-05-12T14:58:25.007Z,14.90
2023-05-12T15:00:53.038Z,14.90
2023-05-12T15:03:21.679Z,14.90
2023-05-12T15:08:21.439Z,14.90
2023-05-12T15:10:49.492Z,15.00
2023-05-12T15:13:20.347Z,15.00
2023-05-12T15:15:48.296Z,15.00
2023-05-12T15:18:16.086Z,15.10
2023-05-12T15:20:43.898Z,15.00
2023-05-12T15:23:11.725Z,15.00
2023-05-12T15:25:40.240Z,15.00
2023-05-12T15:28:08.057Z,15.00
2023-05-12T15:30:37.172Z,15.00
2023-05-12T15:33:05.850Z,15.00
2023-05-12T15:35:33.924Z,15.10
2023-05-12T15:38:01.752Z,15.10
2023-05-12T15:40:30.964Z,15.10
2023-05-12T15:42:58.933Z,15.00
2023-05-12T15:45:26.689Z,15.00
2023-05-12T15:47:56.590Z,15.10
2023-05-12T15:50:24.593Z,15.10
2023-05-12T15:52:52.352Z,15.20
2023-05-12T15:55:20.525Z,15.10
2023-05-12T15:57:48.481Z,15.10
2023-05-12T16:00:17.732Z,15.10
2023-05-12T16:02:45.604Z,15.20
2023-05-12T16:05:14.763Z,15.20
2023-05-12T16:07:42.540Z,15.30
2023-05-12T16:10:11.057Z,15.40
2023-05-12T16:12:38.924Z,15.30
2023-05-12T16:15:07.521Z,15.30
2023-05-12T16:17:35.292Z,15.30
2023-05-12T16:20:03.182Z,15.20
2023-05-12T16:22:32.288Z,15.20
2023-05-12T16:25:00.340Z,15.20
2023-05-12T16:27:28.118Z,15.20
2023-05-12T16:29:55.853Z,15.30
2023-05-12T16:32:23.622Z,15.30
2023-05-12T16:34:51.418Z,15.20
2023-05-12T16:37:19.267Z,15.20
2023-05-12T16:39:48.378Z,15.10
2023-05-12T16:42:16.314Z,15.10
2023-05-12T16:44:44.081Z,15.00
2023-05-12T16:47:11.878Z,15.00
2023-05-12T16:49:39.644Z,14.90
2023-05-12T16:52:08.790Z,15.00
2023-05-12T16:54:37.586Z,15.00
2023-05-12T16:57:07.077Z,15.00
2023-05-12T16:59:36.213Z,15.00
2023-05-12T17:02:04.148Z,15.00
2023-05-12T17:04:32.218Z,15.10
2023-05-12T17:06:59.990Z,15.00
2023-05-12T17:09:27.943Z,14.90
2023-05-12T17:11:55.803Z,14.90
2023-05-12T17:14:24.900Z,14.80
2023-05-12T17:16:52.936Z,14.70
2023-05-12T17:19:21.879Z,14.60
2023-05-12T17:21:50.146Z,14.50
2023-05-12T17:24:17.927Z,14.50
2023-05-12T17:26:45.773Z,14.40
2023-05-12T17:29:13.861Z,14.30
2023-05-12T17:31:43.037Z,14.20
2023-05-12T17:34:10.984Z,14.20
2023-05-12T17:36:38.836Z,14.20
2023-05-12T17:39:06.817Z,14.10
2023-05-12T17:41:34.578Z,14.20
2023-05-12T17:44:02.306Z,14.20
2023-05-12T17:46:30.095Z,14.10
2023-05-12T17:48:59.312Z,14.10
2023-05-12T17:51:27.045Z,14.20
2023-05-12T17:53:54.803Z,14.20
2023-05-12T17:56:22.564Z,14.20
2023-05-12T17:58:50.413Z,14.10
2023-05-12T18:01:18.335Z,14.10
2023-05-12T18:03:46.309Z,14.20
2023-05-12T18:06:15.758Z,14.10
2023-05-12T18:08:43.533Z,14.10
2023-05-12T18:11:11.297Z,14.00
2023-05-12T18:13:39.067Z,14.00
2023-05-12T18:16:12.817Z,13.90
2023-05-12T18:18:49.393Z,13.80
2023-05-12T18:21:18.818Z,13.80
2023-05-12T18:23:46.676Z,13.60
2023-05-12T18:26:14.438Z,13.50
2023-05-12T18:28:42.218Z,13.50
2023-05-12T18:31:15.949Z,13.40
2023-05-12T18:33:46.781Z,13.30
2023-05-12T18:36:14.639Z,13.20
2023-05-12T18:38:43.904Z,13.20
2023-05-12T18:41:12.539Z,13.10
2023-05-12T18:43:40.375Z,13.10
2023-05-12T18:46:08.258Z,13.00
2023-05-12T18:48:36.181Z,12.90
2023-05-12T18:51:04.014Z,12.90
2023-05-12T18:53:31.769Z,12.90
2023-05-12T18:56:00.874Z,12.70
2023-05-12T18:58:28.611Z,12.80
2023-05-12T19:00:56.390Z,12.70
2023-05-12T19:03:24.157Z,12.70
2023-05-12T19:05:51.870Z,12.60
2023-05-12T19:08:19.932Z,12.50
2023-05-12T19:10:48.776Z,12.40
2023-05-12T19:13:17.911Z,12.40
2023-05-12T19:15:45.828Z,12.30
2023-05-12T19:18:13.575Z,12.20
2023-05-12T19:20:41.418Z,12.10
2023-05-12T19:23:09.733Z,12.00
2023-05-12T19:25:37.517Z,11.90
2023-05-12T19:28:05.897Z,11.80
2023-05-12T19:30:35.575Z,11.70
2023-05-12T19:33:03.447Z,11.70
2023-05-12T19:35:31.257Z,11.60
2023-05-12T19:37:59.039Z,11.50
2023-05-12T19:40:26.802Z,11.50
2023-05-12T19:42:55.089Z,11.50
2023-05-12T19:45:23.238Z,11.40
2023-05-12T19:47:52.711Z,11.40
2023-05-12T19:50:21.062Z,11.30
2023-05-12T19:52:48.967Z,11.30
2023-05-12T19:55:16.974Z,11.30
2023-05-12T19:57:44.747Z,11.30
2023-05-12T20:00:13.670Z,11.20
2023-05-12T20:02:42.113Z,11.20
2023-05-12T20:05:11.565Z,11.10
2023-05-12T20:07:39.441Z,11.00
2023-05-12T20:10:08.124Z,11.00
2023-05-12T20:12:35.865Z,11.00
2023-05-12T20:15:03.714Z,10.90
2023-05-12T20:17:31.523Z,10.90
2023-05-12T20:20:01.139Z,10.90
2023-05-12T20:22:30.254Z,10.90
2023-05-12T20:24:59.559Z,10.90
2023-05-12T20:27:27.318Z,10.90
2023-05-12T20:29:55.140Z,10.90
2023-05-12T20:32:22.922Z,10.90
2023-05-12T20:34:50.722Z,10.90
2023-05-12T20:37:18.514Z,10.90
2023-05-12T20:39:47.604Z,10.80
2023-05-12T20:42:15.357Z,10.80
2023-05-12T20:44:43.360Z,10.80
2023-05-12T20:47:11.127Z,10.80
2023-05-12T20:49:38.941Z,10.70
2023-05-12T20:52:07.653Z,10.70
2023-05-12T20:54:35.446Z,10.60
2023-05-12T20:57:04.666Z,10.60
2023-05-12T20:59:32.425Z,10.60
2023-05-12T21:02:00.239Z,10.60
2023-05-12T21:04:28.011Z,10.60
2023-05-12T21:06:55.802Z,10.60
2023-05-12T21:09:23.607Z,10.50
2023-05-12T21:11:51.360Z,10.50
2023-05-12T21:14:20.491Z,10.50
2023-05-12T21:16:48.266Z,10.40
2023-05-12T21:19:16.050Z,10.40
2023-05-12T21:21:43.833Z,10.30
2023-05-12T21:24:11.823Z,10.30
2023-05-12T21:26:39.608Z,10.30
2023-05-12T21:29:07.385Z,10.20
2023-05-12T21:31:36.527Z,10.20
2023-05-12T21:34:04.297Z,10.20
2023-05-12T21:36:33.556Z,10.20
2023-05-12T21:39:01.350Z,10.10
2023-05-12T21:41:29.207Z,10.10
2023-05-12T21:43:56.961Z,10.00
2023-05-12T21:46:24.799Z,10.00
2023-05-12T21:48:54.022Z,10.00
2023-05-12T21:51:21.797Z,9.90
2023-05-12T21:53:49.567Z,9.90
2023-05-12T21:56:17.423Z,9.90
2023-05-12T21:58:45.202Z,9.80
2023-05-12T22:01:13.062Z,9.80
2023-05-12T22:03:41.572Z,9.70
2023-05-12T22:06:11.685Z,9.70
2023-05-12T22:08:39.474Z,9.70
2023-05-12T22:11:07.263Z,9.60
2023-05-12T22:13:35.074Z,9.60
2023-05-12T22:16:03.769Z,9.50
2023-05-12T22:18:31.633Z,9.60
2023-05-12T22:20:59.581Z,9.50
2023-05-12T22:23:28.718Z,9.50
2023-05-12T22:25:56.566Z,9.40
2023-05-12T22:28:24.317Z,9.40
2023-05-12T22:30:52.109Z,9.40
2023-05-12T22:33:19.921Z,9.30
2023-05-12T22:35:47.758Z,9.30
2023-05-12T22:38:15.571Z,9.30
2023-05-12T22:40:44.688Z,9.20
2023-05-12T22:43:13.698Z,9.30
2023-05-12T22:45:41.498Z,9.30
2023-05-12T22:48:09.318Z,9.30
2023-05-12T22:50:37.128Z,9.30
2023-05-12T22:53:04.886Z,9.30
2023-05-12T22:55:32.795Z,9.30
2023-05-12T22:58:01.949Z,9.30
2023-05-12T23:00:29.974Z,9.20
2023-05-12T23:02:59.839Z,9.20
2023-05-12T23:05:27.606Z,9.20
2023-05-12T23:07:55.383Z,9.10
2023-05-12T23:10:23.461Z,9.20
2023-05-12T23:12:51.455Z,9.10
2023-05-12T23:15:20.728Z,9.10
2023-05-12T23:17:48.529Z,9.10
2023-05-12T23:20:16.411Z,9.10
2023-05-12T23:22:44.176Z,9.10
2023-05-12T23:25:11.905Z,9.10
2023-05-12T23:27:39.871Z,9.00
2023-05-12T23:30:08.886Z,9.00
2023-05-12T23:32:38.082Z,9.00
2023-05-12T23:35:06.793Z,8.90
2023-05-12T23:37:34.617Z,9.00
2023-05-12T23:40:02.451Z,9.00
2023-05-12T23:42:30.417Z,9.10
2023-05-12T23:44:58.157Z,9.20
2023-05-12T23:47:25.993Z,9.20
2023-05-12T23:49:55.125Z,9.20
2023-05-12T23:52:22.881Z,9.20
2023-05-12T23:54:50.650Z,9.20
2023-05-12T23:57:18.433Z,9.20
2023-05-12T23:59:46.261Z,9.20
